首页
METAR-TAF:

METAR-TAF

机场 :

贝灵厄姆, 华盛顿, 美国

纬度: 48-47-58N, 经度: 122-32-21W, 海拔: 48米

当前天气观测

该预报发布于22分钟前的13:08 UTC
静风
温度 9°C
湿度 93%
气压 1015 hPa
能見度: 16.1公里
天空无云

METAR: KBLI 221308Z 00000KT 10SM CLR 09/08 A2996 RMK AO2 T00940078

时间: 06:30 (13:30 UTC)

预报

该预报发布于2小时和10分钟前的11:20 UTC
预报有效从22日的 12点(UTC)到 23日的 12点(UTC)
风速4节,风向南转西南
能見度: 10公里
阴天层高于11000英尺
从 22日的 1800点(UTC)
风速5节,风向西转西南
能見度: 10公里
散云层高于12000英尺
多云层高于20000英尺
从 23日的 0300点(UTC)
风速3节,风向
能見度: 10公里
多云层高于10000英尺

TAF: KBLI 221120Z 2212/2312 20004KT P6SM OVC110 FM221800 25005KT P6SM SCT120 BKN200 FM230300 17003KT P6SM BKN100

超过4000个机场的气象观测和天气预报(METAR&TAF报告)。

可查询的气象台以黄色和红色小点在地图上表示。

将鼠标移到小点上方,可查看气象台名称。

然后点击查看天气观测和预报。

如需切换地图:点击带黑十字的绿色按钮放大地图;点击带横线的绿色按钮缩小地图;或者点击绿色箭头查看邻近地区的地图。


METAR-TAF: